LFRD/DNR METAR and TAF weather

Enter ICAO airport designator
Station Type Date Time Source
LFRD METAR 2021/04/17 02:30 UTC NOAA

LFRD 170230Z AUTO 05005KT CAVOK 04/02 Q1028 TEMPO 4000 BR


Station Type Date Time Source
LFRD Decoded METAR 2021/04/17 02:30 UTC NOAA

Dinard, France (LFRD) 48-35N 002-04W 60M
Apr 16, 2021 - 10:30 PM EDT / 2021.04.17 0230 UTC
Wind: from the NE (050 degrees) at 6 MPH (5 KT):0
Visibility: greater than 7 mile(s):0
Temperature: 39 F (4 C)
Dew Point: 35 F (2 C)
Relative Humidity: 86%
Pressure (altimeter): 30.36 in. Hg (1028 hPa)
ob: LFRD 170230Z AUTO 05005KT CAVOK 04/02 Q1028 TEMPO 4000 BR
cycle: 2

Station Type Date Time Source
LFRD TAF 2021/04/16 18:48 UTC NOAA

TAF LFRD 161700Z 1618/1718 03013KT CAVOK PROB30
TEMPO 1618/1620 02015G25KT
BECMG 1622/1624 04005KT PROB40
TEMPO 1702/1706 3000 BR
BECMG 1706/1709 04010KT SCT025

Example: see airport list